createdAt,value
2018-09-29T00:01:15.422Z,10.80
2018-09-29T00:03:45.120Z,10.70
2018-09-29T00:06:13.694Z,10.70
2018-09-29T00:08:42.088Z,10.70
2018-09-29T00:11:10.749Z,10.80
2018-09-29T00:13:39.087Z,10.70
2018-09-29T00:16:08.532Z,10.70
2018-09-29T00:18:37.143Z,10.60
2018-09-29T00:21:05.615Z,10.60
2018-09-29T00:23:34.323Z,10.60
2018-09-29T00:26:02.824Z,10.60
2018-09-29T00:28:31.226Z,10.60
2018-09-29T00:31:00.135Z,10.60
2018-09-29T00:33:28.822Z,10.60
2018-09-29T00:35:57.479Z,10.60
2018-09-29T00:38:25.866Z,10.60
2018-09-29T00:40:54.994Z,10.60
2018-09-29T00:43:23.900Z,10.50
2018-09-29T00:45:52.620Z,10.50
2018-09-29T00:48:21.957Z,10.50
2018-09-29T00:50:50.242Z,10.50
2018-09-29T00:53:18.616Z,10.50
2018-09-29T00:55:47.126Z,10.50
2018-09-29T00:58:15.385Z,10.50
2018-09-29T01:00:43.996Z,10.50
2018-09-29T01:03:12.526Z,10.40
2018-09-29T01:05:43.026Z,10.40
2018-09-29T01:08:12.219Z,10.40
2018-09-29T01:10:41.147Z,10.40
2018-09-29T01:13:10.209Z,10.30
2018-09-29T01:15:39.099Z,10.30
2018-09-29T01:18:08.279Z,10.30
2018-09-29T01:20:36.613Z,10.30
2018-09-29T01:23:05.007Z,10.20
2018-09-29T01:25:33.231Z,10.20
2018-09-29T01:28:01.847Z,10.20
2018-09-29T01:30:31.105Z,10.20
2018-09-29T01:33:00.512Z,10.20
2018-09-29T01:35:29.138Z,10.20
2018-09-29T01:37:58.225Z,10.10
2018-09-29T01:40:27.452Z,10.10
2018-09-29T01:42:56.052Z,10.10
2018-09-29T01:45:25.441Z,10.00
2018-09-29T01:47:54.108Z,10.00
2018-09-29T01:50:23.293Z,9.90
2018-09-29T01:52:53.348Z,9.80
2018-09-29T01:55:22.424Z,9.80
2018-09-29T01:57:51.527Z,9.70
2018-09-29T02:00:19.942Z,9.70
2018-09-29T02:02:48.406Z,9.60
2018-09-29T02:05:17.275Z,9.60
2018-09-29T02:07:45.775Z,9.60
2018-09-29T02:10:14.252Z,9.60
2018-09-29T02:12:42.735Z,9.60
2018-09-29T02:15:11.214Z,9.60
2018-09-29T02:17:39.716Z,9.70
2018-09-29T02:20:08.187Z,9.70
2018-09-29T02:22:36.834Z,9.70
2018-09-29T02:25:05.295Z,9.60
2018-09-29T02:27:33.874Z,9.60
2018-09-29T02:30:02.327Z,9.50
2018-09-29T02:32:30.829Z,9.40
2018-09-29T02:34:59.296Z,9.40
2018-09-29T02:37:27.752Z,9.40
2018-09-29T02:39:56.279Z,9.40
2018-09-29T02:42:25.301Z,9.30
2018-09-29T02:44:53.610Z,9.30
2018-09-29T02:47:22.212Z,9.20
2018-09-29T02:49:50.695Z,9.20
2018-09-29T02:52:19.188Z,9.20
2018-09-29T02:54:47.870Z,9.20
2018-09-29T02:57:17.359Z,9.10
2018-09-29T02:59:45.678Z,9.10
2018-09-29T03:02:14.025Z,9.10
2018-09-29T03:04:42.790Z,9.10
2018-09-29T03:07:11.347Z,9.00
2018-09-29T03:09:39.865Z,8.90
2018-09-29T03:12:08.351Z,8.80
2018-09-29T03:14:36.954Z,8.80
2018-09-29T03:17:05.430Z,8.80
2018-09-29T03:19:33.926Z,8.70
2018-09-29T03:22:02.837Z,8.60
2018-09-29T03:24:31.357Z,8.60
2018-09-29T03:26:59.865Z,8.50
2018-09-29T03:29:28.339Z,8.50
2018-09-29T03:31:56.973Z,8.50
2018-09-29T03:34:25.330Z,8.50
2018-09-29T03:36:54.147Z,8.40
2018-09-29T03:39:22.380Z,8.40
2018-09-29T03:41:50.846Z,8.30
2018-09-29T03:44:19.438Z,8.30
2018-09-29T03:46:47.848Z,8.20
2018-09-29T03:49:16.514Z,8.10
2018-09-29T03:51:45.210Z,8.10
2018-09-29T03:54:13.742Z,8.00
2018-09-29T03:56:42.706Z,7.90
2018-09-29T03:59:11.722Z,7.90
2018-09-29T04:01:40.636Z,7.90
2018-09-29T04:04:09.303Z,7.80
2018-09-29T04:06:37.961Z,7.70
2018-09-29T04:09:07.158Z,7.70
2018-09-29T04:11:36.251Z,7.60
2018-09-29T04:14:05.647Z,7.50
2018-09-29T04:16:33.985Z,7.50
2018-09-29T04:19:03.067Z,7.40
2018-09-29T04:21:35.500Z,7.40
2018-09-29T04:24:04.903Z,7.30
2018-09-29T04:26:33.482Z,7.30
2018-09-29T04:29:01.997Z,7.30
2018-09-29T04:31:30.303Z,7.40
2018-09-29T04:34:00.314Z,7.40
2018-09-29T04:36:28.559Z,7.40
2018-09-29T04:38:56.930Z,7.40
2018-09-29T04:41:25.132Z,7.40
2018-09-29T04:43:53.399Z,7.40
2018-09-29T04:46:21.882Z,7.40
2018-09-29T04:48:50.236Z,7.50
2018-09-29T04:51:18.915Z,7.50
2018-09-29T04:53:47.404Z,7.50
2018-09-29T04:56:15.644Z,7.50
2018-09-29T04:58:44.984Z,7.40
2018-09-29T05:01:13.319Z,7.40
2018-09-29T05:03:42.474Z,7.30
2018-09-29T05:06:10.973Z,7.40
2018-09-29T05:08:41.190Z,7.30
2018-09-29T05:11:09.552Z,7.20
2018-09-29T05:13:37.976Z,7.10
2018-09-29T05:16:06.761Z,7.00
2018-09-29T05:18:34.993Z,6.90
2018-09-29T05:21:03.348Z,6.90
2018-09-29T05:23:31.621Z,6.80
2018-09-29T05:25:59.975Z,6.70
2018-09-29T05:28:29.679Z,6.70
2018-09-29T05:30:58.595Z,6.70
2018-09-29T05:33:27.205Z,6.70
2018-09-29T05:35:55.906Z,6.70
2018-09-29T05:38:24.571Z,6.70
2018-09-29T05:40:52.983Z,6.70
2018-09-29T05:43:21.432Z,6.60
2018-09-29T05:45:51.490Z,6.70
2018-09-29T05:48:19.811Z,6.70
2018-09-29T05:50:49.238Z,6.70
2018-09-29T05:53:18.058Z,6.70
2018-09-29T05:55:47.665Z,6.90
2018-09-29T05:58:17.074Z,7.00
2018-09-29T06:00:45.673Z,7.10
2018-09-29T06:03:14.462Z,7.20
2018-09-29T06:05:43.742Z,7.30
2018-09-29T06:08:12.561Z,7.40
2018-09-29T06:10:41.813Z,7.50
2018-09-29T06:13:10.538Z,7.60
2018-09-29T06:15:39.188Z,7.70
2018-09-29T06:18:08.824Z,7.90
2018-09-29T06:20:37.659Z,8.00
2018-09-29T06:23:06.226Z,8.10
2018-09-29T06:25:34.450Z,8.10
2018-09-29T06:28:02.784Z,8.20
2018-09-29T06:30:30.988Z,8.40
2018-09-29T06:32:59.283Z,8.50
2018-09-29T06:35:27.548Z,8.50
2018-09-29T06:37:55.869Z,8.50
2018-09-29T06:40:24.069Z,8.60
2018-09-29T06:42:52.606Z,8.70
2018-09-29T06:45:20.846Z,8.90
2018-09-29T06:47:49.131Z,8.90
2018-09-29T06:50:17.431Z,8.90
2018-09-29T06:52:45.674Z,9.00
2018-09-29T06:55:13.985Z,9.00
2018-09-29T06:57:43.035Z,9.20
2018-09-29T07:00:11.637Z,9.30
2018-09-29T07:02:40.413Z,9.50
2018-09-29T07:05:08.992Z,9.50
2018-09-29T07:07:37.423Z,9.50
2018-09-29T07:10:05.718Z,9.60
2018-09-29T07:12:33.942Z,9.80
2018-09-29T07:15:02.136Z,9.90
2018-09-29T07:17:30.501Z,10.10
2018-09-29T07:19:58.798Z,10.10
2018-09-29T07:22:27.121Z,10.10
2018-09-29T07:24:55.664Z,10.20
2018-09-29T07:27:23.902Z,10.30
2018-09-29T07:29:52.233Z,10.30
2018-09-29T07:32:20.648Z,10.30
2018-09-29T07:34:48.827Z,10.30
2018-09-29T07:37:17.145Z,10.40
2018-09-29T07:39:45.566Z,10.50
2018-09-29T07:42:13.814Z,10.40
2018-09-29T07:44:42.179Z,10.40
2018-09-29T07:47:10.776Z,10.70
2018-09-29T07:49:39.204Z,10.80
2018-09-29T07:52:07.434Z,10.90
2018-09-29T07:54:35.717Z,11.00
2018-09-29T07:57:03.934Z,11.00
2018-09-29T07:59:32.114Z,11.10
2018-09-29T08:02:00.727Z,11.20
2018-09-29T08:04:29.564Z,11.00
2018-09-29T08:06:57.832Z,11.30
2018-09-29T08:09:26.211Z,11.40
2018-09-29T08:11:54.442Z,11.50
2018-09-29T08:14:23.105Z,11.60
2018-09-29T08:16:51.770Z,11.60
2018-09-29T08:19:20.261Z,11.50
2018-09-29T08:21:49.119Z,11.30
2018-09-29T08:24:17.781Z,11.30
2018-09-29T08:26:46.527Z,11.50
2018-09-29T08:29:14.832Z,11.50
2018-09-29T08:31:43.121Z,11.70
2018-09-29T08:34:12.410Z,11.70
2018-09-29T08:36:40.663Z,11.90
2018-09-29T08:39:09.643Z,11.90
2018-09-29T08:41:37.958Z,11.90
2018-09-29T08:44:06.766Z,11.90
2018-09-29T08:46:35.855Z,12.00
2018-09-29T08:49:04.115Z,12.20
2018-09-29T08:51:32.319Z,12.30
2018-09-29T08:54:00.704Z,12.40
2018-09-29T08:56:28.978Z,12.50
2018-09-29T08:58:57.442Z,12.40
2018-09-29T09:01:25.841Z,12.80
2018-09-29T09:03:54.105Z,12.90
2018-09-29T09:06:22.344Z,12.90
2018-09-29T09:08:50.592Z,13.00
2018-09-29T09:11:18.854Z,13.10
2018-09-29T09:13:47.003Z,13.00
2018-09-29T09:16:15.194Z,12.90
2018-09-29T09:18:43.426Z,12.70
2018-09-29T09:21:11.747Z,12.70
2018-09-29T09:23:40.024Z,12.80
2018-09-29T09:26:08.252Z,12.70
2018-09-29T09:28:36.625Z,12.80
2018-09-29T09:31:04.910Z,13.10
2018-09-29T09:33:33.224Z,13.30
2018-09-29T09:36:01.475Z,13.60
2018-09-29T09:38:29.886Z,13.50
2018-09-29T09:40:58.230Z,13.70
2018-09-29T09:43:26.512Z,13.80
2018-09-29T09:45:55.723Z,13.70
2018-09-29T09:48:23.950Z,13.80
2018-09-29T09:50:52.197Z,13.70
2018-09-29T09:53:20.426Z,13.60
2018-09-29T09:55:48.798Z,13.60
2018-09-29T09:58:17.307Z,13.80
2018-09-29T10:00:50.975Z,14.00
2018-09-29T10:03:24.595Z,14.10
2018-09-29T10:05:52.835Z,14.00
2018-09-29T10:08:21.079Z,13.90
2018-09-29T10:10:49.575Z,14.10
2018-09-29T10:13:17.884Z,14.30
2018-09-29T10:15:46.291Z,14.40
2018-09-29T10:18:14.521Z,14.50
2018-09-29T10:20:42.753Z,14.40
2018-09-29T10:23:11.113Z,14.40
2018-09-29T10:25:39.316Z,14.40
2018-09-29T10:28:07.691Z,14.30
2018-09-29T10:30:36.162Z,14.40
2018-09-29T10:33:04.371Z,14.60
2018-09-29T10:35:32.640Z,14.30
2018-09-29T10:38:00.920Z,14.40
2018-09-29T10:40:29.180Z,14.50
2018-09-29T10:42:57.711Z,14.50
2018-09-29T10:45:26.436Z,14.60
2018-09-29T10:47:54.723Z,14.80
2018-09-29T10:50:23.212Z,14.70
2018-09-29T10:52:51.925Z,14.50
2018-09-29T10:55:20.096Z,14.70
2018-09-29T10:57:48.478Z,14.90
2018-09-29T11:00:17.752Z,15.00
2018-09-29T11:02:46.103Z,15.10
2018-09-29T11:05:14.484Z,15.40
2018-09-29T11:07:42.868Z,15.40
2018-09-29T11:10:11.239Z,14.70
2018-09-29T11:12:40.022Z,15.00
2018-09-29T11:15:08.283Z,15.20
2018-09-29T11:17:36.635Z,15.00
2018-09-29T11:20:05.011Z,15.20
2018-09-29T11:22:33.275Z,15.10
2018-09-29T11:25:01.644Z,15.20
2018-09-29T11:27:30.049Z,15.30
2018-09-29T11:29:58.298Z,15.10
2018-09-29T11:32:26.494Z,15.20
2018-09-29T11:34:54.858Z,15.30
2018-09-29T11:37:23.222Z,15.30
2018-09-29T11:39:51.608Z,15.30
2018-09-29T11:42:19.978Z,15.70
2018-09-29T11:44:48.359Z,15.50
2018-09-29T11:47:16.575Z,15.20
2018-09-29T11:49:44.874Z,15.10
2018-09-29T11:52:13.070Z,14.90
2018-09-29T11:54:41.678Z,14.90
2018-09-29T11:57:10.122Z,15.10
2018-09-29T11:59:38.386Z,14.90
2018-09-29T12:02:06.748Z,15.20
2018-09-29T12:04:35.466Z,14.90
2018-09-29T12:07:03.735Z,15.00
2018-09-29T12:09:32.030Z,15.10
2018-09-29T12:12:00.313Z,15.10
2018-09-29T12:14:28.614Z,15.30
2018-09-29T12:16:57.094Z,15.40
2018-09-29T12:19:25.295Z,15.80
2018-09-29T12:21:53.562Z,15.80
2018-09-29T12:24:21.991Z,16.20
2018-09-29T12:26:50.163Z,16.30
2018-09-29T12:29:18.443Z,15.80
2018-09-29T12:31:46.781Z,16.10
2018-09-29T12:34:15.171Z,16.10
2018-09-29T12:36:43.427Z,16.30
2018-09-29T12:39:12.056Z,16.10
2018-09-29T12:41:40.264Z,16.10
2018-09-29T12:44:08.520Z,16.20
2018-09-29T12:46:37.127Z,16.20
2018-09-29T12:49:05.436Z,16.00
2018-09-29T12:51:33.813Z,16.20
2018-09-29T12:54:01.979Z,16.30
2018-09-29T12:56:30.302Z,16.50
2018-09-29T12:58:58.549Z,16.40
2018-09-29T13:01:26.768Z,16.40
2018-09-29T13:03:55.042Z,16.70
2018-09-29T13:06:24.092Z,16.60
2018-09-29T13:08:52.489Z,16.50
2018-09-29T13:11:20.998Z,16.60
2018-09-29T13:13:49.305Z,16.60
2018-09-29T13:16:17.998Z,16.70
2018-09-29T13:18:47.972Z,16.80
2018-09-29T13:21:16.457Z,16.80
2018-09-29T13:23:44.761Z,16.60
2018-09-29T13:26:13.262Z,16.40
2018-09-29T13:28:42.217Z,16.20
2018-09-29T13:31:11.230Z,16.30
2018-09-29T13:33:39.551Z,16.50
2018-09-29T13:36:09.715Z,16.50
2018-09-29T13:38:37.932Z,16.60
2018-09-29T13:41:06.151Z,16.70
2018-09-29T13:43:34.408Z,16.60
2018-09-29T13:46:02.736Z,16.70
2018-09-29T13:48:31.219Z,16.90
2018-09-29T13:50:59.381Z,16.90
2018-09-29T13:53:27.881Z,16.60
2018-09-29T13:55:56.188Z,16.50
2018-09-29T13:58:24.514Z,16.40
2018-09-29T14:00:52.932Z,16.30
2018-09-29T14:03:21.180Z,16.30
2018-09-29T14:05:49.443Z,16.30
2018-09-29T14:08:17.743Z,16.40
2018-09-29T14:10:46.603Z,16.40
2018-09-29T14:13:16.043Z,16.50
2018-09-29T14:15:44.795Z,16.50
2018-09-29T14:18:13.613Z,16.40
2018-09-29T14:20:42.429Z,16.30
2018-09-29T14:23:11.448Z,16.40
2018-09-29T14:25:40.710Z,16.40
2018-09-29T14:28:09.822Z,16.40
2018-09-29T14:30:38.180Z,16.30
2018-09-29T14:33:06.870Z,16.30
2018-09-29T14:35:35.271Z,16.30
2018-09-29T14:38:03.806Z,16.60
2018-09-29T14:40:32.259Z,16.60
2018-09-29T14:43:00.567Z,16.50
2018-09-29T14:45:28.915Z,16.40
2018-09-29T14:47:57.638Z,16.30
2018-09-29T14:50:26.041Z,16.20
2018-09-29T14:52:54.502Z,16.10
2018-09-29T14:55:22.811Z,16.10
2018-09-29T14:57:51.632Z,16.30
2018-09-29T15:00:19.886Z,16.30
2018-09-29T15:02:48.170Z,16.20
2018-09-29T15:05:16.642Z,16.20
2018-09-29T15:07:45.126Z,16.20
2018-09-29T15:10:13.351Z,16.30
2018-09-29T15:12:41.533Z,16.20
2018-09-29T15:15:10.095Z,16.20
2018-09-29T15:17:38.797Z,16.30
2018-09-29T15:20:07.601Z,16.20
2018-09-29T15:22:36.232Z,16.20
2018-09-29T15:25:05.197Z,16.10
2018-09-29T15:27:33.417Z,16.00
2018-09-29T15:30:02.010Z,15.90
2018-09-29T15:32:30.458Z,15.90
2018-09-29T15:34:58.804Z,15.90
2018-09-29T15:37:27.017Z,15.80
2018-09-29T15:39:55.461Z,15.70
2018-09-29T15:42:23.821Z,15.70
2018-09-29T15:44:52.144Z,15.60
2018-09-29T15:47:20.994Z,15.60
2018-09-29T15:49:49.244Z,15.60
2018-09-29T15:52:17.494Z,15.70
2018-09-29T15:54:46.022Z,15.60
2018-09-29T15:57:14.598Z,15.50
2018-09-29T15:59:43.004Z,15.50
2018-09-29T16:02:11.306Z,15.40
2018-09-29T16:04:40.206Z,15.40
2018-09-29T16:07:08.647Z,15.30
2018-09-29T16:09:36.963Z,15.30
2018-09-29T16:12:05.317Z,15.20
2018-09-29T16:14:33.574Z,15.10
2018-09-29T16:17:01.810Z,15.10
2018-09-29T16:19:30.079Z,15.10
2018-09-29T16:21:58.435Z,15.00
2018-09-29T16:24:26.845Z,15.00
2018-09-29T16:26:55.321Z,14.90
2018-09-29T16:29:23.687Z,14.80
2018-09-29T16:31:52.219Z,14.80
2018-09-29T16:34:20.409Z,14.70
2018-09-29T16:36:49.016Z,14.60
2018-09-29T16:39:17.542Z,14.50
2018-09-29T16:41:45.835Z,14.50
2018-09-29T16:44:14.186Z,14.40
2018-09-29T16:46:42.408Z,14.30
2018-09-29T16:49:10.604Z,14.20
2018-09-29T16:51:38.850Z,14.10
2018-09-29T16:54:07.140Z,14.10
2018-09-29T16:56:35.549Z,14.00
2018-09-29T16:59:03.931Z,13.90
2018-09-29T17:01:32.238Z,13.80
2018-09-29T17:04:00.584Z,13.70
2018-09-29T17:06:29.012Z,13.60
2018-09-29T17:08:57.341Z,13.50
2018-09-29T17:11:25.602Z,13.50
2018-09-29T17:13:53.968Z,13.40
2018-09-29T17:16:22.154Z,13.30
2018-09-29T17:18:50.937Z,13.20
2018-09-29T17:21:19.393Z,13.10
2018-09-29T17:23:47.808Z,13.00
2018-09-29T17:26:16.391Z,12.90
2018-09-29T17:28:45.816Z,12.90
2018-09-29T17:31:14.195Z,12.80
2018-09-29T17:33:42.739Z,12.80
2018-09-29T17:36:11.677Z,12.70
2018-09-29T17:38:40.623Z,12.70
2018-09-29T17:41:09.171Z,12.60
2018-09-29T17:43:37.722Z,12.50
2018-09-29T17:46:07.079Z,12.40
2018-09-29T17:48:35.406Z,12.40
2018-09-29T17:51:03.738Z,12.40
2018-09-29T17:53:32.295Z,12.30
2018-09-29T17:56:00.536Z,12.20
2018-09-29T17:58:28.830Z,12.10
2018-09-29T18:00:57.479Z,12.00
2018-09-29T18:03:26.034Z,11.90
2018-09-29T18:05:55.538Z,11.80
2018-09-29T18:08:23.843Z,11.70
2018-09-29T18:10:52.401Z,11.60
2018-09-29T18:13:21.152Z,11.60
2018-09-29T18:15:50.503Z,11.50
2018-09-29T18:18:19.012Z,11.30
2018-09-29T18:20:48.782Z,11.20
2018-09-29T18:23:17.689Z,11.00
2018-09-29T18:25:47.089Z,10.80
2018-09-29T18:28:16.454Z,10.60
2018-09-29T18:30:45.616Z,10.50
2018-09-29T18:33:14.215Z,10.40
2018-09-29T18:35:44.056Z,10.30
2018-09-29T18:38:12.679Z,10.10
2018-09-29T18:40:42.183Z,9.90
2018-09-29T18:43:10.774Z,9.80
2018-09-29T18:45:39.386Z,9.70
2018-09-29T18:48:07.866Z,9.60
2018-09-29T18:50:36.428Z,9.40
2018-09-29T18:53:05.332Z,9.30
2018-09-29T18:55:33.611Z,9.10
2018-09-29T18:58:01.927Z,9.00
2018-09-29T19:00:30.397Z,8.90
2018-09-29T19:02:59.110Z,8.80
2018-09-29T19:05:27.603Z,8.70
2018-09-29T19:07:56.151Z,8.60
2018-09-29T19:10:24.686Z,8.60
2018-09-29T19:12:54.151Z,8.50
2018-09-29T19:15:22.635Z,8.40
2018-09-29T19:17:51.261Z,8.30
2018-09-29T19:20:19.820Z,8.20
2018-09-29T19:22:48.298Z,8.10
2018-09-29T19:25:16.835Z,8.10
2018-09-29T19:27:45.217Z,8.00
2018-09-29T19:30:13.517Z,7.90
2018-09-29T19:32:41.903Z,7.90
2018-09-29T19:35:10.151Z,7.90
2018-09-29T19:37:39.488Z,7.80
2018-09-29T19:40:08.106Z,7.80
2018-09-29T19:42:36.774Z,7.70
2018-09-29T19:45:05.367Z,7.60
2018-09-29T19:47:33.794Z,7.50
2018-09-29T19:50:02.559Z,7.50
2018-09-29T19:52:31.058Z,7.40
2018-09-29T19:54:59.702Z,7.30
2018-09-29T19:57:28.696Z,7.20
2018-09-29T19:59:57.478Z,7.10
2018-09-29T20:02:26.243Z,7.00
2018-09-29T20:04:55.482Z,7.00
2018-09-29T20:07:24.716Z,7.00
2018-09-29T20:09:53.663Z,7.00
2018-09-29T20:12:22.410Z,7.00
2018-09-29T20:14:51.237Z,7.00
2018-09-29T20:17:20.366Z,7.10
2018-09-29T20:19:48.717Z,7.00
2018-09-29T20:22:17.286Z,7.00
2018-09-29T20:24:46.321Z,7.00
2018-09-29T20:27:14.667Z,6.90
2018-09-29T20:29:43.083Z,6.80
2018-09-29T20:32:11.409Z,6.80
2018-09-29T20:34:40.038Z,6.80
2018-09-29T20:37:08.678Z,6.80
2018-09-29T20:39:37.133Z,6.60
2018-09-29T20:42:05.732Z,6.50
2018-09-29T20:44:34.427Z,6.40
2018-09-29T20:47:02.898Z,6.30
2018-09-29T20:49:31.202Z,6.30
2018-09-29T20:51:59.460Z,6.30
2018-09-29T20:54:27.704Z,6.30
2018-09-29T20:56:56.331Z,6.30
2018-09-29T20:59:24.589Z,6.30
2018-09-29T21:01:53.964Z,6.30
2018-09-29T21:04:23.009Z,6.40
2018-09-29T21:06:51.294Z,6.40
2018-09-29T21:09:20.179Z,6.50
2018-09-29T21:11:48.752Z,6.40
2018-09-29T21:14:17.022Z,6.30
2018-09-29T21:16:45.548Z,6.10
2018-09-29T21:19:14.508Z,5.90
2018-09-29T21:21:42.832Z,5.80
2018-09-29T21:24:12.268Z,5.80
2018-09-29T21:26:41.286Z,5.80
2018-09-29T21:29:10.265Z,5.80
2018-09-29T21:31:38.512Z,5.80
2018-09-29T21:34:07.132Z,5.70
2018-09-29T21:36:37.001Z,5.80
2018-09-29T21:39:08.138Z,5.70
2018-09-29T21:41:37.111Z,5.70
2018-09-29T21:44:06.795Z,5.70
2018-09-29T21:46:35.624Z,5.70
2018-09-29T21:49:06.749Z,5.70
2018-09-29T21:51:35.530Z,5.70
2018-09-29T21:54:05.581Z,5.60
2018-09-29T21:56:34.615Z,5.60
2018-09-29T21:59:02.844Z,5.60
2018-09-29T22:01:32.755Z,5.60
2018-09-29T22:04:02.369Z,5.60
2018-09-29T22:06:31.327Z,5.50
2018-09-29T22:09:00.375Z,5.50
2018-09-29T22:11:29.171Z,5.50
2018-09-29T22:13:58.491Z,5.50
2018-09-29T22:16:27.463Z,5.50
2018-09-29T22:18:56.426Z,5.50
2018-09-29T22:21:24.965Z,5.50
2018-09-29T22:23:53.821Z,5.50
2018-09-29T22:26:22.823Z,5.50
2018-09-29T22:28:52.005Z,5.40
2018-09-29T22:31:21.102Z,5.40
2018-09-29T22:33:50.452Z,5.40
2018-09-29T22:36:19.434Z,5.40
2018-09-29T22:38:48.304Z,5.30
2018-09-29T22:41:19.524Z,5.20
2018-09-29T22:43:49.760Z,5.20
2018-09-29T22:46:18.397Z,5.20
2018-09-29T22:48:47.759Z,5.20
2018-09-29T22:51:16.316Z,5.10
2018-09-29T22:53:46.134Z,5.10
2018-09-29T22:56:15.030Z,5.10
2018-09-29T22:58:43.578Z,5.00
2018-09-29T23:01:12.282Z,5.00
2018-09-29T23:03:40.891Z,5.10
2018-09-29T23:06:09.559Z,5.10
2018-09-29T23:08:38.779Z,5.00
2018-09-29T23:11:07.302Z,5.00
2018-09-29T23:13:35.498Z,5.00
2018-09-29T23:16:05.060Z,5.10
2018-09-29T23:18:33.294Z,5.10
2018-09-29T23:21:02.757Z,5.00
2018-09-29T23:23:31.703Z,5.10
2018-09-29T23:26:00.082Z,5.00
2018-09-29T23:28:29.474Z,4.90
2018-09-29T23:30:57.887Z,4.90
2018-09-29T23:33:26.204Z,4.90
2018-09-29T23:35:54.727Z,4.80
2018-09-29T23:38:23.007Z,4.70
2018-09-29T23:40:51.490Z,4.70
2018-09-29T23:43:20.004Z,4.80
2018-09-29T23:45:48.271Z,4.80
2018-09-29T23:48:17.050Z,4.80
2018-09-29T23:50:45.254Z,4.70
2018-09-29T23:53:13.618Z,4.60
2018-09-29T23:55:42.071Z,4.50
2018-09-29T23:58:10.456Z,4.50
